Welcome to Northern Hawkes Bay. New Zealand.
PWS Header
      nz Flag



Hit Counter


W3C Valid W3C Valid logo


    Wairoa

Select any of the Stations below to visit their websites.










Historic Data from Weather Underground
Select the location of interest below. Wairoa is the default. Please have patience, this Data is slow to load in.
Northern Hawkes Bay Historical Data
Daily Summary for July 16, 2017 Units:  Metric    English   Both
« Previous Day
Next Day »
Daily Weekly Monthly Yearly Custom
  High: Low: Average:
Temperature: 16.1 °C 1.8 °C 6.9 °C
Dew Point: 5.9 °C 0.7 °C 3.5 °C
Humidity: 98% 37% 82%
Wind Speed: 14.8km/h 0.0km/h 5.6km/h
Wind Gust: 19.5km/h - -
Wind- - West
Pressure: 1025.6 hPa 1022.9 hPa -
Precipitation: 0.0 mm    
Historical Graphs
 
 
Tabular Data for July 16, 2017
Time Temperature Dew Point Pressure Wind Wind Speed Wind Gust Humidity Rainfall Rate (Hourly) solar
00:01 4.3 °C 3.9 °C 1023.2 hPa NNW 2.6 km/h 5.0 km/h 97% 0.0 mm 0 W/m2
00:06 4.3 °C 3.9 °C 1023.2 hPa NNW 2.6 km/h 5.0 km/h 97% 0.0 mm 0 W/m2
00:11 4.3 °C 3.9 °C 1023.2 hPa NNW 1.1 km/h 5.0 km/h 97% 0.0 mm 0 W/m2
00:16 4.3 °C 3.9 °C 1023.6 hPa NNW 2.6 km/h 5.0 km/h 97% 0.0 mm 0 W/m2
00:21 4.5 °C 4.1 °C 1023.6 hPa NNW 2.6 km/h 6.1 km/h 97% 0.0 mm 0 W/m2
00:26 4.4 °C 4.1 °C 1023.2 hPa NNW 3.5 km/h 6.1 km/h 98% 0.0 mm 0 W/m2
00:31 4.4 °C 4.1 °C 1023.6 hPa NNW 3.5 km/h 6.1 km/h 98% 0.0 mm 0 W/m2
00:36 4.3 °C 4.0 °C 1023.2 hPa NNW 1.1 km/h 5.0 km/h 98% 0.0 mm 0 W/m2
00:41 4.3 °C 3.9 °C 1023.2 hPa NNW 3.5 km/h 5.0 km/h 97% 0.0 mm 0 W/m2
00:46 4.2 °C 3.8 °C 1023.2 hPa NW 3.5 km/h 6.1 km/h 97% 0.0 mm 0 W/m2
00:51 4.2 °C 3.8 °C 1023.2 hPa NNW 1.1 km/h 6.1 km/h 97% 0.0 mm 0 W/m2
00:56 4.1 °C 3.7 °C 1023.6 hPa NNW 3.5 km/h 6.1 km/h 97% 0.0 mm 0 W/m2
01:01 4.3 °C 4.0 °C 1023.6 hPa North 5.0 km/h 11.1 km/h 98% 0.0 mm 0 W/m2
01:06 4.4 °C 4.1 °C 1023.6 hPa North 2.6 km/h 11.1 km/h 98% 0.0 mm 0 W/m2
01:11 4.3 °C 4.0 °C 1023.2 hPa North 3.5 km/h 8.7 km/h 98% 0.0 mm 0 W/m2
01:16 4.2 °C 3.9 °C 1023.2 hPa North 1.1 km/h 7.2 km/h 98% 0.0 mm 0 W/m2
01:21 4.1 °C 3.7 °C 1023.6 hPa NNE 2.6 km/h 5.0 km/h 97% 0.0 mm 0 W/m2
01:26 4.1 °C 3.7 °C 1023.2 hPa NNE 3.5 km/h 7.2 km/h 97% 0.0 mm 0 W/m2
01:31 4.1 °C 3.7 °C 1023.6 hPa North 3.5 km/h 7.2 km/h 97% 0.0 mm 0 W/m2
01:36 4.0 °C 3.6 °C 1023.6 hPa North 2.6 km/h 7.2 km/h 97% 0.0 mm 0 W/m2
01:41 3.9 °C 3.6 °C 1023.6 hPa North 1.1 km/h 7.2 km/h 98% 0.0 mm 0 W/m2
01:46 3.8 °C 3.5 °C 1023.2 hPa North 3.5 km/h 6.1 km/h 98% 0.0 mm 0 W/m2
01:51 3.7 °C 3.4 °C 1023.2 hPa North 2.6 km/h 6.1 km/h 98% 0.0 mm 0 W/m2
01:56 3.7 °C 3.4 °C 1023.6 hPa North 2.6 km/h 6.1 km/h 98% 0.0 mm 0 W/m2
02:01 3.6 °C 3.3 °C 1023.2 hPa North 2.6 km/h 5.0 km/h 98% 0.0 mm 0 W/m2
02:06 3.5 °C 3.2 °C 1023.2 hPa North 3.5 km/h 6.1 km/h 98% 0.0 mm 0 W/m2
02:11 3.6 °C 3.3 °C 1023.2 hPa North 3.5 km/h 6.1 km/h 98% 0.0 mm 0 W/m2
02:16 3.6 °C 3.3 °C 1023.2 hPa North 6.1 km/h 7.2 km/h 98% 0.0 mm 0 W/m2
02:21 3.6 °C 3.3 °C 1023.2 hPa North 3.5 km/h 7.2 km/h 98% 0.0 mm 0 W/m2
02:26 3.6 °C 3.3 °C 1023.2 hPa North 2.6 km/h 7.2 km/h 98% 0.0 mm 0 W/m2
02:31 3.5 °C 3.2 °C 1023.2 hPa NNW 2.6 km/h 6.1 km/h 98% 0.0 mm 0 W/m2
02:36 3.4 °C 3.1 °C 1023.2 hPa North 3.5 km/h 6.1 km/h 98% 0.0 mm 0 W/m2
02:42 3.2 °C 2.9 °C 1023.2 hPa NNW 2.6 km/h 6.1 km/h 98% 0.0 mm 0 W/m2
02:47 3.2 °C 2.9 °C 1023.2 hPa NNW 3.5 km/h 6.1 km/h 98% 0.0 mm 0 W/m2
02:52 3.1 °C 2.8 °C 1023.2 hPa NNW 3.5 km/h 6.1 km/h 98% 0.0 mm 0 W/m2
02:57 3.2 °C 2.9 °C 1023.2 hPa NNW 2.6 km/h 7.2 km/h 98% 0.0 mm 0 W/m2
03:02 3.2 °C 2.9 °C 1023.2 hPa North 6.1 km/h 11.1 km/h 98% 0.0 mm 0 W/m2
03:07 3.2 °C 2.9 °C 1023.2 hPa North 3.5 km/h 11.1 km/h 98% 0.0 mm 0 W/m2
03:12 3.2 °C 2.9 °C 1022.9 hPa North 3.5 km/h 11.1 km/h 98% 0.0 mm 0 W/m2
03:17 3.2 °C 2.9 °C 1022.9 hPa North 5.0 km/h 8.7 km/h 98% 0.0 mm 0 W/m2
03:22 3.1 °C 2.8 °C 1022.9 hPa NNW 3.5 km/h 8.7 km/h 98% 0.0 mm 0 W/m2
03:24 3.1 °C 2.8 °C 1023.2 hPa NNW 5.0 km/h 8.7 km/h 98% 0.0 mm 0 W/m2
03:30 3.1 °C 2.8 °C 1022.9 hPa North 6.1 km/h 9.7 km/h 98% 0.0 mm 0 W/m2
03:35 3.1 °C 2.8 °C 1022.9 hPa NNW 7.2 km/h 12.2 km/h 98% 0.0 mm 0 W/m2
03:40 3.1 °C 2.8 °C 1023.2 hPa NNW 6.1 km/h 12.2 km/h 98% 0.0 mm 0 W/m2
03:45 3.1 °C 2.7 °C 1023.2 hPa NNW 5.0 km/h 13.4 km/h 97% 0.0 mm 0 W/m2
03:50 3.0 °C 2.6 °C 1023.2 hPa NNW 8.7 km/h 15.8 km/h 97% 0.0 mm 0 W/m2
03:55 3.0 °C 2.6 °C 1022.9 hPa North 7.2 km/h 15.8 km/h 97% 0.0 mm 0 W/m2
04:00 3.0 °C 2.6 °C 1022.9 hPa North 6.1 km/h 13.4 km/h 97% 0.0 mm 0 W/m2
04:05 2.9 °C 1.9 °C 1022.9 hPa NNW 6.1 km/h 13.4 km/h 93% 0.0 mm 0 W/m2
04:10 2.9 °C 1.9 °C 1022.9 hPa NNW 7.2 km/h 11.1 km/h 93% 0.0 mm 0 W/m2
04:15 2.9 °C 1.9 °C 1022.9 hPa NNW 7.2 km/h 11.1 km/h 93% 0.0 mm 0 W/m2
04:20 3.0 °C 2.6 °C 1023.2 hPa NNW 6.1 km/h 11.1 km/h 97% 0.0 mm 0 W/m2
04:25 3.0 °C 2.6 °C 1023.2 hPa North 5.0 km/h 11.1 km/h 97% 0.0 mm 0 W/m2
04:30 3.0 °C 2.6 °C 1022.9 hPa North 6.1 km/h 11.1 km/h 97% 0.0 mm 0 W/m2
04:35 3.1 °C 2.7 °C 1022.9 hPa North 6.1 km/h 11.1 km/h 97% 0.0 mm 0 W/m2
04:40 3.1 °C 2.7 °C 1022.9 hPa North 6.1 km/h 11.1 km/h 97% 0.0 mm 0 W/m2
04:45 3.1 °C 2.7 °C 1023.2 hPa NNW 7.2 km/h 13.4 km/h 97% 0.0 mm 0 W/m2
04:50 3.0 °C 2.4 °C 1023.2 hPa NNW 6.1 km/h 13.4 km/h 96% 0.0 mm 0 W/m2
04:55 3.0 °C 2.4 °C 1023.2 hPa NNW 7.2 km/h 12.2 km/h 96% 0.0 mm 0 W/m2
05:00 2.9 °C 1.7 °C 1023.2 hPa NNW 8.7 km/h 12.2 km/h 92% 0.0 mm 0 W/m2
05:05 2.8 °C 1.6 °C 1023.2 hPa NNW 6.1 km/h 13.4 km/h 92% 0.0 mm 0 W/m2
05:10 2.8 °C 1.6 °C 1023.2 hPa NNW 9.7 km/h 13.4 km/h 92% 0.0 mm 0 W/m2
05:15 2.8 °C 1.6 °C 1023.2 hPa NNW 8.7 km/h 15.8 km/h 92% 0.0 mm 0 W/m2
05:20 2.7 °C 1.6 °C 1023.6 hPa North 8.7 km/h 15.8 km/h 92% 0.0 mm 0 W/m2
05:25 2.7 °C 1.6 °C 1023.6 hPa NNW 6.1 km/h 14.8 km/h 92% 0.0 mm 0 W/m2
05:30 2.6 °C 1.4 °C 1023.6 hPa NNW 9.7 km/h 14.8 km/h 92% 0.0 mm 0 W/m2
05:35 2.5 °C 1.3 °C 1023.6 hPa NW 5.0 km/h 14.8 km/h 92% 0.0 mm 0 W/m2
05:40 2.4 °C 1.2 °C 1023.6 hPa NW 8.7 km/h 13.4 km/h 92% 0.0 mm 0 W/m2
05:45 2.4 °C 1.2 °C 1023.6 hPa NNW 8.7 km/h 12.2 km/h 92% 0.0 mm 0 W/m2
05:50 2.4 °C 1.2 °C 1023.6 hPa NNW 8.7 km/h 14.8 km/h 92% 0.0 mm 0 W/m2
05:55 2.4 °C 1.2 °C 1023.6 hPa NNW 6.1 km/h 14.8 km/h 92% 0.0 mm 0 W/m2
06:00 2.3 °C 1.1 °C 1023.6 hPa NNW 6.1 km/h 14.8 km/h 92% 0.0 mm 0 W/m2
06:05 2.2 °C 1.1 °C 1023.6 hPa NNW 6.1 km/h 11.1 km/h 92% 0.0 mm 0 W/m2
06:10 2.2 °C 1.1 °C 1023.6 hPa NNW 7.2 km/h 12.2 km/h 92% 0.0 mm 0 W/m2
06:15 2.3 °C 1.1 °C 1023.9 hPa NNW 7.2 km/h 12.2 km/h 92% 0.0 mm 0 W/m2
06:20 2.3 °C 1.1 °C 1023.6 hPa NNW 5.0 km/h 12.2 km/h 92% 0.0 mm 0 W/m2
06:25 2.4 °C 1.2 °C 1023.9 hPa NNW 6.1 km/h 12.2 km/h 92% 0.0 mm 0 W/m2
06:31 2.4 °C 1.2 °C 1023.9 hPa NNW 5.0 km/h 12.2 km/h 92% 0.0 mm 0 W/m2
06:36 2.4 °C 1.2 °C 1023.6 hPa NNW 6.1 km/h 12.2 km/h 92% 0.0 mm 0 W/m2
06:41 2.4 °C 1.2 °C 1023.6 hPa NNW 5.0 km/h 12.2 km/h 92% 0.0 mm 0 W/m2
06:46 2.4 °C 1.2 °C 1023.6 hPa NNW 7.2 km/h 12.2 km/h 92% 0.0 mm 0 W/m2
06:51 2.3 °C 1.1 °C 1023.6 hPa NNW 8.7 km/h 12.2 km/h 92% 0.0 mm 0 W/m2
06:56 2.4 °C 1.2 °C 1023.6 hPa NNW 6.1 km/h 13.4 km/h 92% 0.0 mm 0 W/m2
07:01 2.2 °C 1.1 °C 1023.6 hPa NW 8.7 km/h 13.4 km/h 92% 0.0 mm 0 W/m2
07:06 2.0 °C 0.7 °C 1023.9 hPa NNW 11.1 km/h 13.4 km/h 91% 0.0 mm 0 W/m2
07:11 1.9 °C 0.7 °C 1023.9 hPa NNW 7.2 km/h 14.8 km/h 92% 0.0 mm 0 W/m2
07:16 1.9 °C 0.9 °C 1023.9 hPa NNW 8.7 km/h 14.8 km/h 93% 0.0 mm 0 W/m2
07:21 1.8 °C 0.8 °C 1024.3 hPa NNW 9.7 km/h 17.2 km/h 93% 0.0 mm 0 W/m2
07:26 1.8 °C 0.8 °C 1023.9 hPa NNW 7.2 km/h 17.2 km/h 93% 0.0 mm 0 W/m2
07:45 2.1 °C 0.9 °C 1024.3 hPa NW 7.2 km/h 13.4 km/h 92% 0.0 mm 31 W/m2
07:50 2.3 °C 1.3 °C 1024.3 hPa NNW 6.1 km/h 12.2 km/h 93% 0.0 mm 42 W/m2
07:55 2.4 °C 1.4 °C 1024.3 hPa NNW 7.2 km/h 12.2 km/h 93% 0.0 mm 53 W/m2
08:00 2.6 °C 1.4 °C 1024.3 hPa NNW 9.7 km/h 14.8 km/h 92% 0.0 mm 66 W/m2
08:05 2.8 °C 1.6 °C 1024.3 hPa NNW 9.7 km/h 15.8 km/h 92% 0.0 mm 77 W/m2
08:10 3.0 °C 2.3 °C 1024.6 hPa NNW 11.1 km/h 15.8 km/h 95% 0.0 mm 87 W/m2
08:15 3.1 °C 2.4 °C 1024.6 hPa NNW 8.7 km/h 15.8 km/h 95% 0.0 mm 97 W/m2
08:20 3.3 °C 2.4 °C 1024.6 hPa NNW 6.1 km/h 15.8 km/h 94% 0.0 mm 106 W/m2
08:25 3.5 °C 2.5 °C 1024.6 hPa NNW 11.1 km/h 15.8 km/h 93% 0.0 mm 116 W/m2
08:30 3.6 °C 2.4 °C 1024.6 hPa NNW 8.7 km/h 15.8 km/h 92% 0.0 mm 122 W/m2
08:35 3.7 °C 2.5 °C 1024.9 hPa NNW 6.1 km/h 15.8 km/h 92% 0.0 mm 128 W/m2
08:40 3.9 °C 2.6 °C 1024.6 hPa NNW 8.7 km/h 14.8 km/h 91% 0.0 mm 140 W/m2
08:45 4.1 °C 2.4 °C 1024.6 hPa NNW 12.2 km/h 14.8 km/h 89% 0.0 mm 149 W/m2
08:50 4.4 °C 2.7 °C 1024.9 hPa NNW 8.7 km/h 14.8 km/h 89% 0.0 mm 157 W/m2
08:55 4.7 °C 2.9 °C 1024.9 hPa NNW 7.2 km/h 14.8 km/h 88% 0.0 mm 164 W/m2
09:14 5.5 °C 3.0 °C 1024.9 hPa NNW 7.2 km/h 17.2 km/h 84% 0.0 mm 193 W/m2
09:19 5.6 °C 2.9 °C 1024.9 hPa NNW 14.8 km/h 17.2 km/h 83% 0.0 mm 202 W/m2
09:24 5.6 °C 2.9 °C 1024.9 hPa NNW 9.7 km/h 17.2 km/h 83% 0.0 mm 209 W/m2
09:29 5.7 °C 3.1 °C 1025.3 hPa NNW 11.1 km/h 18.3 km/h 83% 0.0 mm 214 W/m2
09:34 5.8 °C 3.2 °C 1024.9 hPa NNW 8.7 km/h 19.5 km/h 83% 0.0 mm 207 W/m2
09:39 5.8 °C 2.9 °C 1024.9 hPa NNW 8.7 km/h 19.5 km/h 82% 0.0 mm 94 W/m2
09:44 6.0 °C 3.0 °C 1025.3 hPa NNW 9.7 km/h 19.5 km/h 81% 0.0 mm 67 W/m2
09:49 6.3 °C 3.1 °C 1024.9 hPa NNW 8.7 km/h 18.3 km/h 80% 0.0 mm 64 W/m2
09:54 6.6 °C 3.2 °C 1024.9 hPa NNW 8.7 km/h 17.2 km/h 79% 0.0 mm 63 W/m2
09:59 6.7 °C 3.1 °C 1025.3 hPa NNW 8.7 km/h 15.8 km/h 78% 0.0 mm 60 W/m2
10:04 6.8 °C 3.1 °C 1024.9 hPa NNW 11.1 km/h 15.8 km/h 77% 0.0 mm 57 W/m2
10:09 7.1 °C 3.2 °C 1025.3 hPa NNW 9.7 km/h 18.3 km/h 76% 0.0 mm 56 W/m2
10:14 7.4 °C 3.4 °C 1024.9 hPa North 6.1 km/h 18.3 km/h 76% 0.0 mm 56 W/m2
10:19 7.7 °C 3.6 °C 1025.3 hPa North 8.7 km/h 19.5 km/h 75% 0.0 mm 56 W/m2
10:24 7.8 °C 3.4 °C 1025.3 hPa North 14.8 km/h 19.5 km/h 74% 0.0 mm 55 W/m2
10:29 7.8 °C 3.7 °C 1025.3 hPa North 7.2 km/h 18.3 km/h 75% 0.0 mm 52 W/m2
10:46 8.6 °C 4.4 °C 1025.6 hPa North 9.7 km/h 15.8 km/h 75% 0.0 mm 48 W/m2
10:51 8.8 °C 4.6 °C 1025.6 hPa North 6.1 km/h 14.8 km/h 75% 0.0 mm 48 W/m2
10:56 9.0 °C 4.6 °C 1025.3 hPa North 9.7 km/h 14.8 km/h 74% 0.0 mm 48 W/m2
11:01 9.1 °C 4.5 °C 1025.6 hPa North 9.7 km/h 13.4 km/h 73% 0.0 mm 48 W/m2
11:06 9.0 °C 4.4 °C 1025.6 hPa North 7.2 km/h 17.2 km/h 73% 0.0 mm 51 W/m2
11:11 9.1 °C 4.5 °C 1025.6 hPa North 6.1 km/h 17.2 km/h 73% 0.0 mm 51 W/m2
11:16 9.4 °C 4.6 °C 1025.6 hPa North 5.0 km/h 13.4 km/h 72% 0.0 mm 51 W/m2
11:21 9.8 °C 4.6 °C 1025.6 hPa North 7.2 km/h 13.4 km/h 70% 0.0 mm 50 W/m2
11:26 10.0 °C 4.4 °C 1025.6 hPa North 7.2 km/h 13.4 km/h 68% 0.0 mm 50 W/m2
11:31 10.3 °C 4.9 °C 1025.6 hPa North 8.7 km/h 13.4 km/h 69% 0.0 mm 50 W/m2
11:36 10.4 °C 4.8 °C 1025.3 hPa North 7.2 km/h 13.4 km/h 68% 0.0 mm 50 W/m2
11:41 10.8 °C 5.3 °C 1025.3 hPa North 6.1 km/h 13.4 km/h 69% 0.0 mm 50 W/m2
11:46 11.0 °C 5.1 °C 1024.9 hPa NNW 7.2 km/h 11.1 km/h 67% 0.0 mm 50 W/m2
11:51 11.3 °C 5.6 °C 1024.9 hPa NNW 6.1 km/h 11.1 km/h 68% 0.0 mm 50 W/m2
11:56 11.3 °C 5.4 °C 1024.9 hPa NW 6.1 km/h 11.1 km/h 67% 0.0 mm 50 W/m2
12:01 11.5 °C 5.6 °C 1024.9 hPa NW 8.7 km/h 12.2 km/h 67% 0.0 mm 50 W/m2
12:06 11.8 °C 5.9 °C 1024.9 hPa NNW 6.1 km/h 12.2 km/h 67% 0.0 mm 50 W/m2
12:11 12.2 °C 5.8 °C 1024.6 hPa NNW 5.0 km/h 12.2 km/h 65% 0.0 mm 50 W/m2
12:16 12.5 °C 5.9 °C 1024.6 hPa North 5.0 km/h 12.2 km/h 64% 0.0 mm 50 W/m2
12:21 12.6 °C 5.7 °C 1024.6 hPa NNW 5.0 km/h 11.1 km/h 63% 0.0 mm 50 W/m2
12:26 12.9 °C 5.8 °C 1024.6 hPa NNW 6.1 km/h 9.7 km/h 62% 0.0 mm 50 W/m2
12:31 13.5 °C 5.9 °C 1024.9 hPa North 5.0 km/h 9.7 km/h 60% 0.0 mm 50 W/m2
12:36 14.0 °C 5.9 °C 1024.6 hPa North 5.0 km/h 11.1 km/h 58% 0.0 mm 50 W/m2
12:41 14.0 °C 4.8 °C 1024.3 hPa North 7.2 km/h 15.8 km/h 54% 0.0 mm 50 W/m2
12:46 14.3 °C 5.1 °C 1024.3 hPa NNE 5.0 km/h 15.8 km/h 54% 0.0 mm 50 W/m2
12:51 14.8 °C 5.6 °C 1024.3 hPa NNE 8.7 km/h 12.2 km/h 54% 0.0 mm 50 W/m2
12:56 14.5 °C 5.1 °C 1024.3 hPa North 6.1 km/h 12.2 km/h 53% 0.0 mm 51 W/m2
13:01 14.6 °C 5.4 °C 1024.3 hPa North 6.1 km/h 12.2 km/h 54% 0.0 mm 51 W/m2
13:06 14.9 °C 4.8 °C 1024.3 hPa North 5.0 km/h 14.8 km/h 51% 0.0 mm 51 W/m2
13:11 15.0 °C 4.1 °C 1024.3 hPa NNE 8.7 km/h 14.8 km/h 48% 0.0 mm 51 W/m2
13:16 14.6 °C 3.7 °C 1023.9 hPa North 5.0 km/h 13.4 km/h 48% 0.0 mm 52 W/m2
13:21 14.6 °C 3.7 °C 1023.9 hPa North 7.2 km/h 14.8 km/h 48% 0.0 mm 52 W/m2
13:26 14.7 °C 3.5 °C 1023.9 hPa North 7.2 km/h 14.8 km/h 47% 0.0 mm 53 W/m2
13:43 15.7 °C 4.7 °C 1023.9 hPa NNE 6.1 km/h 11.1 km/h 48% 0.0 mm 58 W/m2
13:48 15.7 °C 4.4 °C 1023.9 hPa North 5.0 km/h 11.1 km/h 47% 0.0 mm 60 W/m2
13:53 15.5 °C 3.9 °C 1023.9 hPa NNW 7.2 km/h 12.2 km/h 46% 0.0 mm 62 W/m2
13:58 15.6 °C 3.7 °C 1024.3 hPa North 5.0 km/h 12.2 km/h 45% 0.0 mm 64 W/m2
14:03 15.7 °C 3.5 °C 1024.3 hPa North 5.0 km/h 12.2 km/h 44% 0.0 mm 67 W/m2
14:08 15.9 °C 3.7 °C 1023.9 hPa NNE 3.5 km/h 8.7 km/h 44% 0.0 mm 78 W/m2
14:13 16.1 °C 2.5 °C 1024.3 hPa NE 6.1 km/h 9.7 km/h 40% 0.0 mm 116 W/m2
14:18 15.9 °C 2.7 °C 1024.3 hPa NNE 2.6 km/h 9.7 km/h 41% 0.0 mm 183 W/m2
14:23 15.9 °C 3.0 °C 1023.9 hPa NNE 3.5 km/h 9.7 km/h 42% 0.0 mm 182 W/m2
14:28 15.2 °C 1.7 °C 1023.9 hPa NE 8.7 km/h 11.1 km/h 40% 0.0 mm 179 W/m2
14:33 15.6 °C 3.1 °C 1024.3 hPa NE 2.6 km/h 11.1 km/h 43% 0.0 mm 204 W/m2
14:38 15.9 °C 1.2 °C 1024.3 hPa NE 3.5 km/h 11.1 km/h 37% 0.0 mm 199 W/m2
14:43 15.9 °C 1.9 °C 1023.9 hPa NE 7.2 km/h 11.1 km/h 39% 0.0 mm 193 W/m2
14:48 15.7 °C 2.2 °C 1024.3 hPa NE 6.1 km/h 11.1 km/h 40% 0.0 mm 183 W/m2
15:04 15.6 °C 1.3 °C 1024.3 hPa NE 7.2 km/h 11.1 km/h 38% 0.0 mm 152 W/m2
15:09 15.6 °C 2.1 °C 1023.9 hPa NE 3.5 km/h 11.1 km/h 40% 0.0 mm 145 W/m2
15:14 16.0 °C 2.1 °C 1023.9 hPa NE 6.1 km/h 9.7 km/h 39% 0.0 mm 145 W/m2
15:19 15.6 °C 0.9 °C 1023.9 hPa NE 7.2 km/h 9.7 km/h 37% 0.0 mm 141 W/m2
15:24 15.3 °C 1.8 °C 1023.9 hPa NE 6.1 km/h 9.7 km/h 40% 0.0 mm 132 W/m2
15:29 15.3 °C 1.1 °C 1023.9 hPa NE 3.5 km/h 9.7 km/h 38% 0.0 mm 127 W/m2
15:34 15.5 °C 1.6 °C 1023.9 hPa NE 7.2 km/h 11.1 km/h 39% 0.0 mm 117 W/m2
15:39 15.2 °C 1.3 °C 1023.9 hPa ENE 5.0 km/h 11.1 km/h 39% 0.0 mm 112 W/m2
15:44 15.0 °C 1.5 °C 1023.9 hPa ENE 7.2 km/h 11.1 km/h 40% 0.0 mm 103 W/m2
15:49 15.0 °C 2.2 °C 1023.6 hPa ENE 7.2 km/h 11.1 km/h 42% 0.0 mm 88 W/m2
15:54 15.1 °C 2.6 °C 1023.6 hPa NE 3.5 km/h 11.1 km/h 43% 0.0 mm 79 W/m2
16:00 15.2 °C 3.1 °C 1023.6 hPa ENE 5.0 km/h 8.7 km/h 44% 0.0 mm 70 W/m2
16:05 15.2 °C 3.1 °C 1023.6 hPa NE 5.0 km/h 8.7 km/h 44% 0.0 mm 60 W/m2
16:10 15.1 °C 3.3 °C 1023.9 hPa ENE 5.0 km/h 9.7 km/h 45% 0.0 mm 52 W/m2
16:15 14.9 °C 3.7 °C 1023.9 hPa ENE 6.1 km/h 9.7 km/h 47% 0.0 mm 45 W/m2
16:20 14.7 °C 4.1 °C 1023.6 hPa ENE 7.2 km/h 8.7 km/h 49% 0.0 mm 38 W/m2
16:25 14.3 °C 4.3 °C 1023.6 hPa ENE 5.0 km/h 8.7 km/h 51% 0.0 mm 33 W/m2
16:30 14.4 °C 4.9 °C 1023.6 hPa ENE 3.5 km/h 8.7 km/h 53% 0.0 mm 29 W/m2
16:35 14.2 °C 4.8 °C 1023.6 hPa ENE 2.6 km/h 7.2 km/h 53% 0.0 mm 23 W/m2
16:40 13.7 °C 4.8 °C 1023.6 hPa ENE 2.6 km/h 7.2 km/h 55% 0.0 mm 18 W/m2
16:45 13.6 °C 5.2 °C 1023.6 hPa Calm   5.0 km/h 57% 0.0 mm 18 W/m2
16:50 13.6 °C 5.2 °C 1023.9 hPa Calm   3.5 km/h 57% 0.0 mm 11 W/m2
16:55 13.0 °C 4.4 °C 1023.9 hPa Calm   1.1 km/h 56% 0.0 mm 4 W/m2
17:00 12.1 °C 4.3 °C 1023.9 hPa South 1.1 km/h 2.6 km/h 59% 0.0 mm 1 W/m2
17:05 11.0 °C 4.4 °C 1023.9 hPa Calm   2.6 km/h 64% 0.0 mm 0 W/m2
17:10 10.4 °C 4.6 °C 1023.9 hPa Calm   2.6 km/h 67% 0.0 mm 0 W/m2
17:15 9.8 °C 4.2 °C 1023.9 hPa Calm   2.6 km/h 68% 0.0 mm 0 W/m2
17:20 9.4 °C 4.6 °C 1024.3 hPa WSW 1.1 km/h 3.5 km/h 72% 0.0 mm 0 W/m2
17:25 8.9 °C 4.5 °C 1023.9 hPa Calm   3.5 km/h 74% 0.0 mm 0 W/m2
17:30 8.6 °C 4.4 °C 1024.3 hPa Calm   3.5 km/h 75% 0.0 mm 0 W/m2
17:35 8.5 °C 4.3 °C 1024.3 hPa Calm   1.1 km/h 75% 0.0 mm 0 W/m2
17:40 8.5 °C 4.7 °C 1024.3 hPa North 1.1 km/h 3.5 km/h 77% 0.0 mm 0 W/m2
17:45 8.3 °C 4.7 °C 1024.3 hPa North 1.1 km/h 3.5 km/h 78% 0.0 mm 0 W/m2
17:50 8.1 °C 4.7 °C 1024.3 hPa North 1.1 km/h 3.5 km/h 79% 0.0 mm 0 W/m2
17:55 7.9 °C 4.8 °C 1024.3 hPa NNW 2.6 km/h 5.0 km/h 81% 0.0 mm 0 W/m2
18:00 7.6 °C 4.7 °C 1024.3 hPa NW 2.6 km/h 5.0 km/h 82% 0.0 mm 0 W/m2
18:05 7.2 °C 4.3 °C 1024.6 hPa NNW 2.6 km/h 3.5 km/h 82% 0.0 mm 0 W/m2
18:10 6.9 °C 4.4 °C 1024.6 hPa North 3.5 km/h 5.0 km/h 84% 0.0 mm 0 W/m2
18:15 6.7 °C 4.3 °C 1024.6 hPa North 2.6 km/h 5.0 km/h 85% 0.0 mm 0 W/m2
18:20 6.6 °C 4.3 °C 1024.6 hPa North 3.5 km/h 5.0 km/h 85% 0.0 mm 0 W/m2
18:25 6.6 °C 4.3 °C 1024.6 hPa North 2.6 km/h 5.0 km/h 85% 0.0 mm 0 W/m2
18:30 6.4 °C 4.1 °C 1024.9 hPa North 2.6 km/h 5.0 km/h 85% 0.0 mm 0 W/m2
18:35 6.3 °C 4.1 °C 1024.9 hPa North 2.6 km/h 5.0 km/h 86% 0.0 mm 0 W/m2
18:40 6.2 °C 4.1 °C 1024.6 hPa North 2.6 km/h 5.0 km/h 86% 0.0 mm 0 W/m2
18:45 6.0 °C 3.8 °C 1024.9 hPa North 2.6 km/h 5.0 km/h 86% 0.0 mm 0 W/m2
18:50 5.8 °C 3.9 °C 1024.9 hPa NNW 3.5 km/h 6.1 km/h 88% 0.0 mm 0 W/m2
18:56 5.7 °C 4.1 °C 1024.9 hPa NW 2.6 km/h 6.1 km/h 89% 0.0 mm 0 W/m2
19:01 5.6 °C 4.1 °C 1024.9 hPa NNW 2.6 km/h 6.1 km/h 90% 0.0 mm 0 W/m2
19:06 5.5 °C 4.2 °C 1024.9 hPa North 3.5 km/h 6.1 km/h 91% 0.0 mm 0 W/m2
19:11 5.4 °C 4.2 °C 1024.9 hPa NNW 3.5 km/h 6.1 km/h 92% 0.0 mm 0 W/m2
19:16 5.4 °C 4.2 °C 1024.9 hPa NNW 3.5 km/h 6.1 km/h 92% 0.0 mm 0 W/m2
19:21 5.4 °C 4.3 °C 1024.9 hPa NNW 3.5 km/h 6.1 km/h 93% 0.0 mm 0 W/m2
19:26 5.3 °C 4.3 °C 1024.9 hPa NNW 3.5 km/h 7.2 km/h 93% 0.0 mm 0 W/m2
19:31 5.4 °C 4.3 °C 1024.9 hPa NNW 6.1 km/h 8.7 km/h 93% 0.0 mm 0 W/m2
19:36 5.5 °C 4.4 °C 1024.9 hPa NW 5.0 km/h 8.7 km/h 93% 0.0 mm 0 W/m2
19:41 5.6 °C 4.7 °C 1024.9 hPa NW 6.1 km/h 8.7 km/h 94% 0.0 mm 0 W/m2
19:46 5.7 °C 4.8 °C 1024.9 hPa NW 5.0 km/h 8.7 km/h 94% 0.0 mm 0 W/m2
19:51 5.7 °C 4.8 °C 1024.9 hPa NW 5.0 km/h 8.7 km/h 94% 0.0 mm 0 W/m2
19:56 5.7 °C 4.8 °C 1024.9 hPa NW 5.0 km/h 7.2 km/h 94% 0.0 mm 0 W/m2
20:01 5.7 °C 4.8 °C 1024.6 hPa NW 5.0 km/h 7.2 km/h 94% 0.0 mm 0 W/m2
20:06 5.7 °C 4.8 °C 1024.6 hPa NW 3.5 km/h 7.2 km/h 94% 0.0 mm 0 W/m2
20:11 5.7 °C 4.8 °C 1024.6 hPa NW 6.1 km/h 8.7 km/h 94% 0.0 mm 0 W/m2
20:16 5.6 °C 4.7 °C 1024.6 hPa NW 5.0 km/h 8.7 km/h 94% 0.0 mm 0 W/m2
20:21 5.5 °C 4.6 °C 1024.6 hPa NNW 3.5 km/h 7.2 km/h 94% 0.0 mm 0 W/m2
20:26 5.4 °C 4.5 °C 1024.6 hPa NW 6.1 km/h 7.2 km/h 94% 0.0 mm 0 W/m2
20:28 5.4 °C 4.5 °C 1024.6 hPa NW 5.0 km/h 7.2 km/h 94% 0.0 mm 0 W/m2
20:33 5.4 °C 4.5 °C 1024.6 hPa NW 6.1 km/h 9.7 km/h 94% 0.0 mm 0 W/m2
20:38 5.4 °C 4.5 °C 1024.9 hPa NNW 7.2 km/h 12.2 km/h 94% 0.0 mm 0 W/m2
20:43 5.5 °C 4.6 °C 1024.9 hPa NW 6.1 km/h 12.2 km/h 94% 0.0 mm 0 W/m2
20:48 5.5 °C 4.6 °C 1024.9 hPa NW 7.2 km/h 12.2 km/h 94% 0.0 mm 0 W/m2
20:53 5.4 °C 4.5 °C 1024.9 hPa NW 8.7 km/h 11.1 km/h 94% 0.0 mm 0 W/m2
20:58 5.5 °C 4.6 °C 1024.9 hPa NNW 8.7 km/h 12.2 km/h 94% 0.0 mm 0 W/m2
21:03 5.5 °C 4.6 °C 1024.9 hPa NNW 5.0 km/h 12.2 km/h 94% 0.0 mm 0 W/m2
21:08 5.6 °C 4.7 °C 1025.3 hPa NNW 7.2 km/h 12.2 km/h 94% 0.0 mm 0 W/m2
21:13 5.6 °C 4.7 °C 1024.9 hPa NNW 9.7 km/h 14.8 km/h 94% 0.0 mm 0 W/m2
21:18 5.6 °C 4.6 °C 1025.3 hPa NNW 6.1 km/h 14.8 km/h 93% 0.0 mm 0 W/m2
21:23 5.6 °C 4.6 °C 1025.6 hPa NNW 5.0 km/h 11.1 km/h 93% 0.0 mm 0 W/m2
21:28 5.5 °C 4.4 °C 1025.6 hPa North 3.5 km/h 11.1 km/h 93% 0.0 mm 0 W/m2
21:33 5.5 °C 4.4 °C 1025.6 hPa NNW 5.0 km/h 8.7 km/h 93% 0.0 mm 0 W/m2
21:38 5.5 °C 4.4 °C 1025.6 hPa NW 3.5 km/h 8.7 km/h 93% 0.0 mm 0 W/m2
21:43 5.4 °C 4.3 °C 1025.3 hPa NNW 3.5 km/h 8.7 km/h 93% 0.0 mm 0 W/m2
21:48 5.4 °C 4.3 °C 1025.6 hPa NNW 1.1 km/h 7.2 km/h 93% 0.0 mm 0 W/m2
21:53 5.4 °C 4.3 °C 1025.6 hPa NNW 2.6 km/h 7.2 km/h 93% 0.0 mm 0 W/m2
21:58 5.4 °C 4.5 °C 1025.3 hPa North 2.6 km/h 5.0 km/h 94% 0.0 mm 0 W/m2
22:03 5.4 °C 4.5 °C 1025.3 hPa NNW 3.5 km/h 6.1 km/h 94% 0.0 mm 0 W/m2
22:08 5.5 °C 4.6 °C 1025.3 hPa NNW 6.1 km/h 8.7 km/h 94% 0.0 mm 0 W/m2
22:13 5.6 °C 4.7 °C 1025.3 hPa NW 6.1 km/h 11.1 km/h 94% 0.0 mm 0 W/m2
22:18 5.6 °C 4.6 °C 1024.9 hPa NNW 6.1 km/h 11.1 km/h 93% 0.0 mm 0 W/m2
22:23 5.5 °C 4.4 °C 1025.3 hPa NNW 6.1 km/h 9.7 km/h 93% 0.0 mm 0 W/m2
22:28 5.4 °C 4.3 °C 1024.9 hPa NNW 7.2 km/h 11.1 km/h 93% 0.0 mm 0 W/m2
22:33 5.3 °C 4.3 °C 1024.9 hPa NW 7.2 km/h 12.2 km/h 93% 0.0 mm 0 W/m2
22:38 5.2 °C 4.2 °C 1024.9 hPa NW 6.1 km/h 12.2 km/h 93% 0.0 mm 0 W/m2
22:43 5.2 °C 4.2 °C 1024.9 hPa NW 8.7 km/h 13.4 km/h 93% 0.0 mm 0 W/m2
22:48 5.2 °C 4.2 °C 1024.9 hPa NW 7.2 km/h 13.4 km/h 93% 0.0 mm 0 W/m2
22:53 5.2 °C 4.2 °C 1024.9 hPa NW 8.7 km/h 13.4 km/h 93% 0.0 mm 0 W/m2
22:58 5.2 °C 4.2 °C 1024.9 hPa NNW 7.2 km/h 13.4 km/h 93% 0.0 mm 0 W/m2
23:03 5.2 °C 4.2 °C 1024.9 hPa NNW 6.1 km/h 12.2 km/h 93% 0.0 mm 0 W/m2
23:08 5.2 °C 4.2 °C 1024.9 hPa NNW 6.1 km/h 11.1 km/h 93% 0.0 mm 0 W/m2
23:13 5.1 °C 4.1 °C 1024.9 hPa NW 7.2 km/h 9.7 km/h 93% 0.0 mm 0 W/m2
23:18 5.0 °C 3.9 °C 1024.9 hPa NNW 3.5 km/h 9.7 km/h 93% 0.0 mm 0 W/m2
23:23 5.0 °C 3.9 °C 1024.9 hPa NNW 7.2 km/h 9.7 km/h 93% 0.0 mm 0 W/m2
23:28 4.9 °C 4.0 °C 1024.9 hPa NW 9.7 km/h 14.8 km/h 94% 0.0 mm 0 W/m2
23:33 4.9 °C 4.0 °C 1024.6 hPa NW 7.2 km/h 14.8 km/h 94% 0.0 mm 0 W/m2
23:38 4.9 °C 4.0 °C 1024.9 hPa NW 9.7 km/h 14.8 km/h 94% 0.0 mm 0 W/m2
23:43 4.8 °C 3.9 °C 1024.9 hPa NW 8.7 km/h 12.2 km/h 94% 0.0 mm 0 W/m2
23:48 4.9 °C 4.0 °C 1024.6 hPa NNW 8.7 km/h 14.8 km/h 94% 0.0 mm 0 W/m2
23:53 4.9 °C 4.0 °C 1024.9 hPa NNW 7.2 km/h 14.8 km/h 94% 0.0 mm 0 W/m2
23:58 4.9 °C 4.0 °C 1024.6 hPa NNW 6.1 km/h 14.8 km/h 94% 0.0 mm 0 W/m2
Northern Hawkes Bay. New Zealand Historic Data
Compliments of Weather Underground - 2 mb